Time;durP1;ratioP1;P1;durP2;ratioP2;P2;SDS_P1;SDS_P2;PMS_P1;PMS_P2;Temp;Humidity;BMP_temperature;BMP_pressure;BME280_temperature;BME280_humidity;BME280_pressure;Samples;Min_cycle;Max_cycle;Signal;HPM_P1;HPM_P2
2022/04/14 00:02:18;;;;;;;;;;;10.90;99.90;;;;;;4967850;28;19928;-81
2022/04/14 00:04:44;;;;;;;;;;;10.90;99.90;;;;;;4985363;28;19921;-81
2022/04/14 00:07:09;;;;;;;;;;;10.90;99.90;;;;;;4984314;28;19933;-81
2022/04/14 00:09:36;;;;;;;;;;;10.80;99.90;;;;;;4984801;28;19928;-81
2022/04/14 00:12:01;;;;;;;;;;;10.80;99.90;;;;;;4984434;28;19926;-81
2022/04/14 00:14:27;;;;;;;;;;;10.80;99.90;;;;;;4984090;28;19922;-81
2022/04/14 00:16:52;;;;;;;;;;;10.70;99.90;;;;;;4967536;28;19926;-81
2022/04/14 00:19:18;;;;;;;;;;;10.80;99.90;;;;;;4984593;28;19976;-81
2022/04/14 00:21:43;;;;;;;;;;;10.70;99.90;;;;;;4984256;28;19922;-80
2022/04/14 00:24:09;;;;;;;;;;;10.80;99.90;;;;;;4980847;28;19921;-81
2022/04/14 00:26:34;;;;;;;;;;;10.70;99.90;;;;;;4985067;28;19972;-81
2022/04/14 00:29:00;;;;;;;;;;;10.70;99.90;;;;;;4984948;28;19926;-81
2022/04/14 00:31:25;;;;;;;;;;;10.70;99.90;;;;;;4969324;28;19926;-81
2022/04/14 00:33:50;;;;;;;;;;;10.70;99.90;;;;;;4985228;28;20312;-80
2022/04/14 00:36:16;;;;;;;;;;;10.70;99.90;;;;;;4984079;28;19922;-81
2022/04/14 00:38:42;;;;;;;;;;;10.70;99.90;;;;;;4986588;28;19922;-80
2022/04/14 00:41:07;;;;;;;;;;;10.70;99.90;;;;;;4985248;28;20012;-80
2022/04/14 00:43:33;;;;;;;;;;;10.70;99.90;;;;;;4984321;28;19922;-80
2022/04/14 00:46:00;;;;;;;;;;;10.70;99.90;;;;;;4986762;28;19922;-80
2022/04/14 00:48:25;;;;;;;;;;;10.70;99.90;;;;;;4989628;28;19922;-80
2022/04/14 00:50:51;;;;;;;;;;;10.70;99.90;;;;;;4972566;28;19965;-80
2022/04/14 00:53:16;;;;;;;;;;;10.70;99.90;;;;;;4988692;28;19926;-80
2022/04/14 00:55:42;;;;;;;;;;;10.60;99.90;;;;;;4987343;28;20103;-81
2022/04/14 00:58:07;;;;;;;;;;;10.60;99.90;;;;;;4988637;28;19976;-81
2022/04/14 01:00:33;;;;;;;;;;;10.60;99.90;;;;;;4987452;28;19977;-81
2022/04/14 01:02:59;;;;;;;;;;;10.60;99.90;;;;;;4987263;28;19972;-81
2022/04/14 01:05:25;;;;;;;;;;;10.60;99.90;;;;;;4985965;28;20592;-81
2022/04/14 01:07:51;;;;;;;;;;;10.50;99.90;;;;;;4987832;28;19922;-81
2022/04/14 01:10:17;;;;;;;;;;;10.50;99.90;;;;;;4986507;28;20409;-80
2022/04/14 01:12:42;;;;;;;;;;;10.50;99.90;;;;;;4986714;28;19925;-80
2022/04/14 01:15:12;;;;;;;;;;;10.50;99.90;;;;;;4986315;28;19929;-80
2022/04/14 01:17:38;;;;;;;;;;;10.40;99.90;;;;;;5002922;28;19946;-80
2022/04/14 01:20:04;;;;;;;;;;;10.40;99.90;;;;;;4986725;28;19922;-80
2022/04/14 01:22:30;;;;;;;;;;;10.40;99.90;;;;;;4985708;28;19936;-80
2022/04/14 01:24:57;;;;;;;;;;;10.30;99.90;;;;;;4986643;28;20073;-80
2022/04/14 01:27:25;;;;;;;;;;;10.30;99.90;;;;;;4969058;28;20384;-80
2022/04/14 01:29:54;;;;;;;;;;;10.20;99.90;;;;;;4974390;28;20303;-80
2022/04/14 01:32:20;;;;;;;;;;;10.20;99.90;;;;;;5000737;28;19930;-80
2022/04/14 01:34:46;;;;;;;;;;;10.20;99.90;;;;;;4986957;28;19922;-80
2022/04/14 01:37:11;;;;;;;;;;;10.10;99.90;;;;;;4985960;28;19968;-80
2022/04/14 01:39:37;;;;;;;;;;;10.10;99.90;;;;;;4986538;28;19921;-80
2022/04/14 01:42:03;;;;;;;;;;;10.10;99.90;;;;;;4987251;28;19922;-80
2022/04/14 01:44:28;;;;;;;;;;;10.10;99.90;;;;;;5003538;28;20079;-80
2022/04/14 01:46:54;;;;;;;;;;;10.00;99.90;;;;;;5003081;28;20083;-80
2022/04/14 01:49:19;;;;;;;;;;;10.00;99.90;;;;;;4986590;28;19936;-80
2022/04/14 01:51:48;;;;;;;;;;;9.90;99.90;;;;;;5000326;28;19932;-81
2022/04/14 01:54:13;;;;;;;;;;;9.90;99.90;;;;;;4998539;28;19934;-81
2022/04/14 01:56:39;;;;;;;;;;;9.80;99.90;;;;;;4996753;28;19981;-81
2022/04/14 01:59:04;;;;;;;;;;;9.80;99.90;;;;;;4993328;28;19925;-81
2022/04/14 02:01:30;;;;;;;;;;;9.70;99.90;;;;;;4975743;28;20406;-81
2022/04/14 02:03:57;;;;;;;;;;;9.70;99.90;;;;;;4989680;28;19961;-81
2022/04/14 02:06:22;;;;;;;;;;;9.60;99.90;;;;;;4988245;28;19997;-81
2022/04/14 02:08:48;;;;;;;;;;;9.60;99.90;;;;;;4988789;28;19922;-80
2022/04/14 02:11:13;;;;;;;;;;;9.60;99.90;;;;;;4993879;28;19926;-80
2022/04/14 02:13:39;;;;;;;;;;;9.50;99.90;;;;;;4988365;28;19922;-80
2022/04/14 02:16:05;;;;;;;;;;;9.50;99.90;;;;;;4979375;28;19922;-80
2022/04/14 02:18:30;;;;;;;;;;;9.50;99.90;;;;;;5005490;28;19936;-80
2022/04/14 02:20:56;;;;;;;;;;;9.50;99.90;;;;;;4986840;28;19921;-80
2022/04/14 02:23:24;;;;;;;;;;;9.50;99.90;;;;;;4987302;28;19933;-80
2022/04/14 02:25:50;;;;;;;;;;;9.50;99.90;;;;;;4986835;28;20024;-80
2022/04/14 02:28:15;;;;;;;;;;;9.50;99.90;;;;;;4987362;28;20336;-80
2022/04/14 02:30:41;;;;;;;;;;;9.40;99.90;;;;;;4987096;28;19921;-80
2022/04/14 02:33:06;;;;;;;;;;;9.30;99.90;;;;;;4985534;28;19933;-80
2022/04/14 02:35:32;;;;;;;;;;;9.30;99.90;;;;;;4970826;28;19976;-80
2022/04/14 02:37:57;;;;;;;;;;;9.20;99.90;;;;;;4987151;28;19977;-80
2022/04/14 02:40:26;;;;;;;;;;;9.10;99.90;;;;;;4986810;28;19921;-80
2022/04/14 02:42:56;;;;;;;;;;;9.10;99.90;;;;;;4986454;28;19929;-81
2022/04/14 02:45:22;;;;;;;;;;;9.10;99.90;;;;;;4986075;28;19933;-81
2022/04/14 02:47:48;;;;;;;;;;;9.00;99.90;;;;;;4969869;28;19944;-81
2022/04/14 02:50:14;;;;;;;;;;;8.90;99.90;;;;;;4986294;28;19989;-81
2022/04/14 02:52:39;;;;;;;;;;;8.90;99.90;;;;;;4985959;28;19989;-80
2022/04/14 02:55:05;;;;;;;;;;;8.90;99.90;;;;;;4966645;28;19922;-80
2022/04/14 02:57:30;;;;;;;;;;;8.90;99.90;;;;;;4989484;28;20026;-80
2022/04/14 02:59:56;;;;;;;;;;;8.90;99.90;;;;;;4988889;28;19968;-80
2022/04/14 03:02:22;;;;;;;;;;;8.90;99.90;;;;;;4986460;28;19987;-80
2022/04/14 03:04:47;;;;;;;;;;;8.80;99.90;;;;;;4985433;28;19922;-80
2022/04/14 03:07:13;;;;;;;;;;;8.80;99.90;;;;;;4984959;28;19922;-80
2022/04/14 03:09:38;;;;;;;;;;;8.80;99.90;;;;;;4985384;28;19998;-80
2022/04/14 03:12:04;;;;;;;;;;;8.70;99.90;;;;;;4977714;28;19932;-80
2022/04/14 03:14:29;;;;;;;;;;;8.70;99.90;;;;;;4967935;28;19926;-81
2022/04/14 03:16:57;;;;;;;;;;;8.70;99.90;;;;;;4987402;28;20012;-80
2022/04/14 03:19:22;;;;;;;;;;;8.70;99.90;;;;;;5004158;28;20295;-80
2022/04/14 03:21:48;;;;;;;;;;;8.70;99.90;;;;;;5004268;28;19969;-80
2022/04/14 03:24:13;;;;;;;;;;;8.60;99.90;;;;;;4986463;28;19965;-80
2022/04/14 03:26:39;;;;;;;;;;;8.60;99.90;;;;;;4984543;28;19921;-80
2022/04/14 03:29:04;;;;;;;;;;;8.70;99.90;;;;;;4986811;28;19970;-80
2022/04/14 03:31:30;;;;;;;;;;;8.70;99.90;;;;;;5000741;28;19933;-80
2022/04/14 03:33:56;;;;;;;;;;;8.70;99.90;;;;;;4998668;28;19914;-80
2022/04/14 03:36:21;;;;;;;;;;;8.70;99.90;;;;;;5005425;28;19926;-80
2022/04/14 03:38:47;;;;;;;;;;;8.70;99.90;;;;;;4983908;28;19910;-80
2022/04/14 03:41:12;;;;;;;;;;;8.60;99.90;;;;;;4999924;28;19914;-80
2022/04/14 03:43:38;;;;;;;;;;;8.60;99.90;;;;;;4999880;28;19987;-80
2022/04/14 03:46:04;;;;;;;;;;;8.50;99.90;;;;;;4969113;28;19932;-80
2022/04/14 03:48:29;;;;;;;;;;;8.50;99.90;;;;;;4984167;28;19930;-80
2022/04/14 03:50:55;;;;;;;;;;;8.40;99.90;;;;;;5001275;28;19945;-80
2022/04/14 03:53:21;;;;;;;;;;;8.30;99.90;;;;;;4983038;28;19932;-80
2022/04/14 03:55:46;;;;;;;;;;;8.40;99.90;;;;;;4983509;28;19944;-80
2022/04/14 03:58:12;;;;;;;;;;;8.50;99.90;;;;;;4971043;28;19928;-80
2022/04/14 04:00:38;;;;;;;;;;;8.50;99.90;;;;;;4992449;28;19932;-81
2022/04/14 04:03:03;;;;;;;;;;;8.50;99.90;;;;;;4980357;28;19926;-80
2022/04/14 04:05:29;;;;;;;;;;;8.60;99.90;;;;;;4962357;28;19965;-80
2022/04/14 04:07:54;;;;;;;;;;;8.60;99.90;;;;;;4983794;28;19928;-80
2022/04/14 04:10:20;;;;;;;;;;;8.50;99.90;;;;;;4967814;28;19930;-81
2022/04/14 04:12:45;;;;;;;;;;;8.50;99.90;;;;;;4981295;28;19929;-81
2022/04/14 04:15:12;;;;;;;;;;;8.50;99.90;;;;;;4981364;28;19922;-81
2022/04/14 04:17:39;;;;;;;;;;;8.50;99.90;;;;;;4982449;28;19921;-81
2022/04/14 04:20:05;;;;;;;;;;;8.50;99.90;;;;;;4982417;28;19922;-81
2022/04/14 04:22:30;;;;;;;;;;;8.50;99.90;;;;;;4982739;28;19981;-81
2022/04/14 04:24:57;;;;;;;;;;;8.40;99.90;;;;;;4983238;28;20312;-81
2022/04/14 04:27:22;;;;;;;;;;;8.40;99.90;;;;;;4981653;28;19964;-81
2022/04/14 04:29:48;;;;;;;;;;;8.30;99.90;;;;;;5000813;28;19921;-81
2022/04/14 04:32:13;;;;;;;;;;;8.20;99.90;;;;;;5000777;28;19936;-81
2022/04/14 04:34:39;;;;;;;;;;;8.10;99.90;;;;;;5000376;28;20021;-81
2022/04/14 04:37:04;;;;;;;;;;;8.00;99.90;;;;;;4963931;28;20399;-81
2022/04/14 04:39:30;;;;;;;;;;;7.90;99.90;;;;;;4964131;28;19934;-81
2022/04/14 04:41:55;;;;;;;;;;;7.90;99.90;;;;;;4964265;28;19930;-81
2022/04/14 04:44:21;;;;;;;;;;;7.90;99.90;;;;;;4989017;28;20361;-81
2022/04/14 04:46:46;;;;;;;;;;;7.80;99.90;;;;;;4966817;28;19992;-80
2022/04/14 04:49:12;;;;;;;;;;;7.80;99.90;;;;;;4982916;28;19922;-81
2022/04/14 04:51:37;;;;;;;;;;;7.70;99.90;;;;;;4999897;28;19926;-81
2022/04/14 04:54:03;;;;;;;;;;;7.70;99.90;;;;;;4982308;28;20292;-80
2022/04/14 04:56:28;;;;;;;;;;;7.70;99.90;;;;;;4982244;28;20016;-81
2022/04/14 04:58:54;;;;;;;;;;;7.60;99.90;;;;;;4982815;28;19922;-80
2022/04/14 05:01:19;;;;;;;;;;;7.60;99.90;;;;;;4965760;28;19993;-81
2022/04/14 05:03:45;;;;;;;;;;;7.50;99.90;;;;;;4981112;28;20126;-81
2022/04/14 05:06:10;;;;;;;;;;;7.50;99.90;;;;;;4982086;28;19925;-81
2022/04/14 05:08:36;;;;;;;;;;;7.50;99.90;;;;;;4982407;28;19944;-81
2022/04/14 05:11:01;;;;;;;;;;;7.60;99.90;;;;;;4965701;28;19922;-79
2022/04/14 05:13:27;;;;;;;;;;;7.70;99.90;;;;;;4973931;28;20351;-81
2022/04/14 05:15:52;;;;;;;;;;;7.80;99.90;;;;;;4982830;28;19970;-81
2022/04/14 05:18:18;;;;;;;;;;;7.80;99.90;;;;;;4966221;28;19922;-81
2022/04/14 05:20:43;;;;;;;;;;;7.90;99.90;;;;;;4982272;28;20017;-81
2022/04/14 05:23:09;;;;;;;;;;;8.00;99.90;;;;;;4966575;28;19925;-81
2022/04/14 05:25:44;;;;;;;;;;;8.10;99.90;;;;;;4966866;28;19922;-81
2022/04/14 05:28:09;;;;;;;;;;;8.10;99.90;;;;;;4999149;28;19922;-81
2022/04/14 05:30:35;;;;;;;;;;;8.10;99.90;;;;;;4967290;28;19922;-81
2022/04/14 05:33:00;;;;;;;;;;;8.20;99.90;;;;;;4984947;28;20023;-81
2022/04/14 05:35:29;;;;;;;;;;;8.20;99.90;;;;;;4969694;28;20012;-81
2022/04/14 05:37:55;;;;;;;;;;;8.20;99.90;;;;;;4985249;28;20016;-81
2022/04/14 05:40:20;;;;;;;;;;;8.30;99.90;;;;;;4969739;28;19965;-81
2022/04/14 05:42:46;;;;;;;;;;;8.40;99.90;;;;;;4968899;28;19921;-81
2022/04/14 05:45:13;;;;;;;;;;;8.50;99.90;;;;;;4985236;28;19968;-81
2022/04/14 05:47:38;;;;;;;;;;;8.60;99.90;;;;;;4985054;28;20411;-81
2022/04/14 05:50:04;;;;;;;;;;;8.70;99.90;;;;;;4984356;28;19979;-81
2022/04/14 05:52:29;;;;;;;;;;;8.80;99.90;;;;;;4985537;28;20020;-81
2022/04/14 05:54:58;;;;;;;;;;;8.90;99.90;;;;;;4984575;28;19925;-80
2022/04/14 05:57:23;;;;;;;;;;;9.10;99.90;;;;;;4984773;28;19922;-80
2022/04/14 05:59:49;;;;;;;;;;;9.30;99.90;;;;;;4984701;28;19922;-79
2022/04/14 06:02:14;;;;;;;;;;;9.40;99.90;;;;;;4968717;28;19926;-80
2022/04/14 06:04:40;;;;;;;;;;;9.50;99.90;;;;;;4983814;28;19950;-82
2022/04/14 06:07:05;;;;;;;;;;;9.60;99.90;;;;;;4967153;28;19922;-80
2022/04/14 06:09:31;;;;;;;;;;;9.60;99.90;;;;;;4983350;28;19921;-81
2022/04/14 06:11:57;;;;;;;;;;;9.70;99.90;;;;;;4968145;28;19926;-81
2022/04/14 06:14:22;;;;;;;;;;;9.80;99.90;;;;;;4985092;28;20285;-80
2022/04/14 06:16:48;;;;;;;;;;;9.80;99.90;;;;;;4967204;28;19922;-81
2022/04/14 06:19:15;;;;;;;;;;;9.90;99.90;;;;;;4982853;28;19973;-81
2022/04/14 06:21:41;;;;;;;;;;;9.90;99.90;;;;;;4983383;28;20023;-81
2022/04/14 06:24:06;;;;;;;;;;;10.00;99.90;;;;;;4967099;28;20386;-81
2022/04/14 06:26:32;;;;;;;;;;;10.10;99.90;;;;;;4983473;28;19922;-81
2022/04/14 06:28:57;;;;;;;;;;;10.10;99.90;;;;;;4967568;28;19922;-81
2022/04/14 06:31:23;;;;;;;;;;;10.20;99.90;;;;;;4966888;28;20001;-81
2022/04/14 06:33:48;;;;;;;;;;;10.20;99.90;;;;;;4984016;28;19922;-81
2022/04/14 06:36:14;;;;;;;;;;;10.40;99.90;;;;;;4982942;28;19973;-81
2022/04/14 06:38:39;;;;;;;;;;;10.40;99.90;;;;;;4983411;28;19933;-81
2022/04/14 06:41:05;;;;;;;;;;;10.50;99.90;;;;;;4982580;28;20347;-81
2022/04/14 06:43:31;;;;;;;;;;;10.60;99.90;;;;;;4982839;28;20017;-81
2022/04/14 06:45:58;;;;;;;;;;;10.70;99.90;;;;;;4983036;28;19922;-81
2022/04/14 06:48:23;;;;;;;;;;;10.80;99.90;;;;;;4983787;28;20403;-81
2022/04/14 06:50:49;;;;;;;;;;;10.90;99.90;;;;;;4982593;28;19922;-81
2022/04/14 06:53:15;;;;;;;;;;;11.00;99.90;;;;;;4983362;28;19925;-81
2022/04/14 06:55:42;;;;;;;;;;;11.10;99.90;;;;;;4982202;28;19925;-81
2022/04/14 06:58:08;;;;;;;;;;;11.20;99.90;;;;;;4983132;28;19922;-81
2022/04/14 07:00:33;;;;;;;;;;;11.40;99.90;;;;;;4982824;28;19929;-81
2022/04/14 07:02:59;;;;;;;;;;;11.50;99.90;;;;;;4966989;28;20352;-81
2022/04/14 07:05:24;;;;;;;;;;;11.60;99.90;;;;;;4982689;28;19969;-82
2022/04/14 07:07:50;;;;;;;;;;;11.70;99.90;;;;;;4982853;28;19929;-82
2022/04/14 07:10:16;;;;;;;;;;;11.80;99.90;;;;;;4982503;28;19922;-82
2022/04/14 07:12:42;;;;;;;;;;;11.90;99.90;;;;;;4982669;28;19952;-82
2022/04/14 07:15:08;;;;;;;;;;;12.00;99.90;;;;;;4982580;28;20008;-82
2022/04/14 07:17:34;;;;;;;;;;;12.10;99.90;;;;;;4981752;28;19928;-82
2022/04/14 07:20:03;;;;;;;;;;;12.20;99.90;;;;;;4966424;28;20008;-82
2022/04/14 07:22:30;;;;;;;;;;;12.40;99.90;;;;;;4982104;28;19976;-82
2022/04/14 07:24:55;;;;;;;;;;;12.60;99.90;;;;;;4982202;28;19968;-82
2022/04/14 07:27:21;;;;;;;;;;;12.70;99.90;;;;;;4981574;28;20365;-82
2022/04/14 07:29:47;;;;;;;;;;;12.90;99.90;;;;;;4982517;28;19922;-81
2022/04/14 07:32:13;;;;;;;;;;;13.00;99.90;;;;;;4980998;28;19973;-82
2022/04/14 07:34:38;;;;;;;;;;;13.20;99.90;;;;;;4981930;28;19921;-82
2022/04/14 07:37:04;;;;;;;;;;;13.30;99.90;;;;;;4980453;28;19929;-82
2022/04/14 07:39:30;;;;;;;;;;;13.40;99.90;;;;;;4981478;28;19958;-82
2022/04/14 07:41:55;;;;;;;;;;;13.60;99.90;;;;;;4965077;28;19969;-81
2022/04/14 07:44:21;;;;;;;;;;;13.70;99.90;;;;;;4980601;28;19929;-81
2022/04/14 07:46:46;;;;;;;;;;;13.70;99.90;;;;;;4980059;28;19964;-81
2022/04/14 07:49:12;;;;;;;;;;;13.80;99.90;;;;;;4978204;28;19922;-79
2022/04/14 07:51:37;;;;;;;;;;;14.00;99.90;;;;;;4976191;28;19926;-79
2022/04/14 07:54:03;;;;;;;;;;;14.10;99.90;;;;;;4974918;28;19972;-79
2022/04/14 07:56:29;;;;;;;;;;;14.20;99.90;;;;;;4975549;28;20304;-78
2022/04/14 07:58:54;;;;;;;;;;;14.40;99.90;;;;;;4975605;28;19930;-79
2022/04/14 08:01:20;;;;;;;;;;;14.50;99.90;;;;;;4962212;28;19932;-80
2022/04/14 08:03:46;;;;;;;;;;;14.50;99.90;;;;;;4976663;28;19943;-80
2022/04/14 08:06:13;;;;;;;;;;;14.50;99.90;;;;;;4976041;28;19922;-79
2022/04/14 08:08:39;;;;;;;;;;;14.60;99.90;;;;;;4976242;28;19954;-79
2022/04/14 08:11:04;;;;;;;;;;;14.70;99.90;;;;;;4975432;28;19922;-78
2022/04/14 08:13:35;;;;;;;;;;;14.90;99.90;;;;;;4975769;28;19933;-79
2022/04/14 08:16:03;;;;;;;;;;;15.00;99.90;;;;;;4978449;28;19926;-79
2022/04/14 08:18:29;;;;;;;;;;;15.00;99.90;;;;;;4998690;28;19922;-78
2022/04/14 08:20:57;;;;;;;;;;;15.20;99.90;;;;;;4981681;28;19961;-79
2022/04/14 08:23:22;;;;;;;;;;;15.30;99.90;;;;;;4981509;28;20261;-79
2022/04/14 08:25:48;;;;;;;;;;;15.50;99.90;;;;;;4980795;28;19925;-79
2022/04/14 08:28:13;;;;;;;;;;;15.70;99.90;;;;;;4981018;28;20186;-79
2022/04/14 08:30:40;;;;;;;;;;;15.80;99.90;;;;;;4979080;28;19921;-79
2022/04/14 08:33:07;;;;;;;;;;;15.90;99.90;;;;;;4959812;28;20016;-78
2022/04/14 08:35:32;;;;;;;;;;;15.90;99.90;;;;;;4975749;28;19922;-79
2022/04/14 08:37:58;;;;;;;;;;;15.90;99.90;;;;;;4976162;28;19922;-77
2022/04/14 08:40:26;;;;;;;;;;;15.90;99.90;;;;;;4975809;28;20388;-78
2022/04/14 08:42:55;;;;;;;;;;;15.90;99.90;;;;;;4975387;28;19929;-78
2022/04/14 08:45:21;;;;;;;;;;;15.90;99.90;;;;;;4975289;28;19922;-79
2022/04/14 08:47:48;;;;;;;;;;;15.90;99.90;;;;;;4974934;28;19922;-78
2022/04/14 08:50:15;;;;;;;;;;;16.10;99.90;;;;;;4974877;28;20433;-78
2022/04/14 08:52:40;;;;;;;;;;;16.20;99.90;;;;;;4959044;28;19953;-78
2022/04/14 08:55:08;;;;;;;;;;;16.30;99.90;;;;;;4975318;28;19970;-78
2022/04/14 08:57:35;;;;;;;;;;;16.50;99.90;;;;;;4958687;28;19922;-79
2022/04/14 09:00:02;;;;;;;;;;;16.60;99.90;;;;;;4992770;28;19926;-78
2022/04/14 09:02:28;;;;;;;;;;;16.60;99.90;;;;;;4959256;28;19929;-78
2022/04/14 09:04:53;;;;;;;;;;;16.60;99.90;;;;;;4974875;28;20195;-79
2022/04/14 09:07:19;;;;;;;;;;;16.80;99.90;;;;;;4978760;28;19991;-79
2022/04/14 09:09:45;;;;;;;;;;;16.80;99.90;;;;;;4978913;28;19933;-79
2022/04/14 09:12:11;;;;;;;;;;;16.60;99.90;;;;;;4978769;28;19929;-79
2022/04/14 09:14:37;;;;;;;;;;;16.40;99.90;;;;;;4978805;28;19942;-78
2022/04/14 09:17:09;;;;;;;;;;;16.60;99.90;;;;;;4977989;28;20482;-79
2022/04/14 09:19:35;;;;;;;;;;;16.90;99.90;;;;;;4978638;28;20042;-78
2022/04/14 09:22:03;;;;;;;;;;;17.30;99.90;;;;;;4978459;28;19925;-78
2022/04/14 09:24:41;;;;;;;;;;;17.30;99.90;;;;;;4978397;28;20012;-79
2022/04/14 09:27:07;;;;;;;;;;;17.20;99.90;;;;;;4978089;28;19922;-78
2022/04/14 09:29:32;;;;;;;;;;;17.00;99.90;;;;;;4978109;28;19976;-77
2022/04/14 09:31:58;;;;;;;;;;;16.90;99.90;;;;;;4977998;28;20314;-78
2022/04/14 09:34:45;;;;;;;;;;;16.90;99.90;;;;;;4978435;28;19921;-79
2022/04/14 09:37:11;;;;;;;;;;;16.90;99.90;;;;;;4977811;28;19957;-78
2022/04/14 09:39:48;;;;;;;;;;;17.00;99.90;;;;;;4961653;28;20017;-78
2022/04/14 09:42:14;;;;;;;;;;;17.10;99.90;;;;;;4977833;28;20404;-79
2022/04/14 09:44:39;;;;;;;;;;;17.10;99.90;;;;;;4980037;28;19977;-77
2022/04/14 09:47:05;;;;;;;;;;;17.30;99.90;;;;;;4977947;28;20274;-78
2022/04/14 09:49:30;;;;;;;;;;;17.40;99.90;;;;;;4977839;28;19926;-78
2022/04/14 09:51:56;;;;;;;;;;;17.50;99.90;;;;;;4977810;28;19929;-78
2022/04/14 09:54:28;;;;;;;;;;;17.70;99.90;;;;;;4977868;28;19953;-79
2022/04/14 09:56:55;;;;;;;;;;;18.00;99.90;;;;;;4977067;28;19921;-79
2022/04/14 09:59:22;;;;;;;;;;;18.30;99.90;;;;;;4978084;28;20327;-79
2022/04/14 10:01:48;;;;;;;;;;;18.50;99.90;;;;;;4978094;28;19922;-78
2022/04/14 10:04:30;;;;;;;;;;;18.50;99.90;;;;;;4977945;28;20391;-78
2022/04/14 10:07:09;;;;;;;;;;;18.50;99.90;;;;;;4961514;28;20288;-79
2022/04/14 10:09:35;;;;;;;;;;;18.60;99.90;;;;;;4995173;28;20061;-79
2022/04/14 10:12:02;;;;;;;;;;;18.80;99.90;;;;;;4977254;28;19933;-79
2022/04/14 10:14:27;;;;;;;;;;;18.90;99.90;;;;;;4977146;28;19933;-79
2022/04/14 10:16:53;;;;;;;;;;;19.00;99.90;;;;;;4976331;28;19995;-79
2022/04/14 10:19:19;;;;;;;;;;;19.10;99.90;;;;;;4977664;28;19922;-79
2022/04/14 10:21:45;;;;;;;;;;;19.00;99.90;;;;;;4977309;28;19976;-79
2022/04/14 10:24:14;;;;;;;;;;;19.10;99.90;;;;;;4977370;28;19933;-79
2022/04/14 10:26:40;;;;;;;;;;;19.20;99.90;;;;;;4976798;28;19928;-79
2022/04/14 10:29:06;;;;;;;;;;;19.20;99.90;;;;;;4977189;28;19921;-79
2022/04/14 10:31:35;;;;;;;;;;;19.30;99.90;;;;;;4976867;28;19925;-78
2022/04/14 10:34:04;;;;;;;;;;;19.30;99.90;;;;;;4976992;28;20012;-78
2022/04/14 10:36:31;;;;;;;;;;;19.10;99.90;;;;;;4976934;28;19921;-78
2022/04/14 10:38:57;;;;;;;;;;;18.90;99.90;;;;;;4977501;28;19973;-79
2022/04/14 10:41:25;;;;;;;;;;;18.50;99.90;;;;;;4960800;28;19922;-79
2022/04/14 10:43:51;;;;;;;;;;;18.20;99.90;;;;;;4977189;28;19926;-78
2022/04/14 10:46:17;;;;;;;;;;;18.20;99.90;;;;;;4976435;28;19928;-79
2022/04/14 10:48:44;;;;;;;;;;;18.30;99.90;;;;;;4976799;28;19973;-78
2022/04/14 10:51:17;;;;;;;;;;;18.60;99.90;;;;;;4994231;28;20257;-79
2022/04/14 10:53:48;;;;;;;;;;;18.60;99.90;;;;;;4976750;28;20028;-78
2022/04/14 10:56:33;;;;;;;;;;;18.60;99.90;;;;;;4976282;28;19926;-79
2022/04/14 10:58:58;;;;;;;;;;;18.90;99.90;;;;;;4976528;28;19921;-79
2022/04/14 11:01:43;;;;;;;;;;;19.20;99.90;;;;;;4960850;28;20343;-79
2022/04/14 11:04:27;;;;;;;;;;;19.40;99.90;;;;;;4977399;28;19929;-80
2022/04/14 11:06:54;;;;;;;;;;;19.60;99.90;;;;;;4983122;28;19922;-79
2022/04/14 11:09:38;;;;;;;;;;;19.90;99.90;;;;;;4966970;28;20134;-79
2022/04/14 11:12:04;;;;;;;;;;;19.80;99.90;;;;;;4976545;28;20388;-79
2022/04/14 11:14:33;;;;;;;;;;;19.20;99.40;;;;;;4976615;28;19929;-79
2022/04/14 11:17:00;;;;;;;;;;;18.70;99.90;;;;;;4976151;28;20009;-78
2022/04/14 11:19:26;;;;;;;;;;;18.40;99.90;;;;;;4976347;28;19924;-78
2022/04/14 11:21:58;;;;;;;;;;;18.40;99.90;;;;;;4977110;28;20299;-78
2022/04/14 11:24:52;;;;;;;;;;;18.30;99.90;;;;;;4977430;28;20337;-78
2022/04/14 11:27:21;;;;;;;;;;;18.00;99.90;;;;;;4967757;28;20296;-79
2022/04/14 11:29:48;;;;;;;;;;;17.90;99.90;;;;;;4975933;28;21036;-78
2022/04/14 11:32:14;;;;;;;;;;;17.80;99.90;;;;;;4976151;28;19925;-79
2022/04/14 11:34:40;;;;;;;;;;;17.90;99.90;;;;;;4976758;28;19922;-79
2022/04/14 11:37:37;;;;;;;;;;;18.50;99.90;;;;;;4960307;28;19948;-79
2022/04/14 11:40:12;;;;;;;;;;;18.80;99.90;;;;;;4976161;28;19948;-78
2022/04/14 11:42:38;;;;;;;;;;;19.30;99.90;;;;;;4977341;28;19921;-80
2022/04/14 11:45:03;;;;;;;;;;;19.60;97.30;;;;;;4976467;28;20381;-78
2022/04/14 11:47:29;;;;;;;;;;;19.50;99.20;;;;;;4975855;28;20027;-79
2022/04/14 11:49:54;;;;;;;;;;;19.30;99.10;;;;;;4976194;28;19928;-79
2022/04/14 11:52:23;;;;;;;;;;;19.00;99.90;;;;;;4975723;28;19936;-79
2022/04/14 11:54:49;;;;;;;;;;;18.80;99.90;;;;;;4976096;28;20328;-79
2022/04/14 11:57:19;;;;;;;;;;;18.90;99.90;;;;;;4981185;28;19928;-79
2022/04/14 11:59:45;;;;;;;;;;;19.00;99.90;;;;;;4964805;28;20408;-80
2022/04/14 12:02:12;;;;;;;;;;;19.30;99.10;;;;;;4982496;28;19925;-79
2022/04/14 12:04:39;;;;;;;;;;;19.50;99.90;;;;;;4981488;28;19929;-79
2022/04/14 12:07:05;;;;;;;;;;;19.90;97.00;;;;;;4983615;28;20379;-80
2022/04/14 12:09:31;;;;;;;;;;;20.20;98.70;;;;;;4982729;28;19922;-80
2022/04/14 12:12:07;;;;;;;;;;;20.20;91.30;;;;;;5000852;28;19925;-79
2022/04/14 12:14:32;;;;;;;;;;;20.30;99.90;;;;;;4984547;28;19929;-79
2022/04/14 12:16:57;;;;;;;;;;;20.40;89.70;;;;;;5001877;28;19922;-79
2022/04/14 12:19:38;;;;;;;;;;;20.30;99.90;;;;;;4983498;28;19947;-80
2022/04/14 12:22:05;;;;;;;;;;;20.40;99.90;;;;;;4986386;28;19926;-79
2022/04/14 12:24:30;;;;;;;;;;;20.40;99.20;;;;;;4969100;28;19968;-80
2022/04/14 12:26:56;;;;;;;;;;;20.40;88.50;;;;;;4984358;28;19922;-80
2022/04/14 12:29:22;;;;;;;;;;;20.50;87.90;;;;;;4986551;28;19922;-80
2022/04/14 12:31:48;;;;;;;;;;;20.60;86.20;;;;;;5002043;28;19985;-79
2022/04/14 12:34:14;;;;;;;;;;;20.70;69.00;;;;;;4984815;28;19926;-79
2022/04/14 12:36:39;;;;;;;;;;;20.40;92.10;;;;;;4975269;28;19922;-78
2022/04/14 12:39:16;;;;;;;;;;;20.40;96.60;;;;;;4975723;28;20008;-78
2022/04/14 12:41:41;;;;;;;;;;;20.40;78.90;;;;;;4981286;28;20357;-79
2022/04/14 12:44:07;;;;;;;;;;;20.50;99.90;;;;;;4981853;28;20021;-78
2022/04/14 12:46:39;;;;;;;;;;;20.50;95.70;;;;;;4981589;28;20388;-79
2022/04/14 12:49:08;;;;;;;;;;;20.40;87.40;;;;;;4982249;28;19925;-79
2022/04/14 12:51:39;;;;;;;;;;;20.50;86.10;;;;;;4981843;28;19921;-78
2022/04/14 12:54:05;;;;;;;;;;;20.50;81.10;;;;;;4981734;28;20292;-79
2022/04/14 12:56:32;;;;;;;;;;;20.20;77.90;;;;;;4981557;28;19947;-78
2022/04/14 12:59:06;;;;;;;;;;;19.90;93.90;;;;;;4981790;28;20285;-78
2022/04/14 13:02:01;;;;;;;;;;;19.60;92.20;;;;;;4981532;28;20369;-78
2022/04/14 13:04:53;;;;;;;;;;;19.40;93.90;;;;;;4966046;28;19922;-78
2022/04/14 13:07:19;;;;;;;;;;;19.10;92.40;;;;;;4981776;28;20404;-78
2022/04/14 13:09:59;;;;;;;;;;;19.00;92.40;;;;;;4985511;28;19929;-78
2022/04/14 13:12:37;;;;;;;;;;;18.90;95.80;;;;;;4989223;28;20151;-78
2022/04/14 13:15:03;;;;;;;;;;;18.80;99.90;;;;;;4989402;28;20245;-78
2022/04/14 13:17:29;;;;;;;;;;;18.70;99.90;;;;;;4987516;28;19988;-78
2022/04/14 13:19:55;;;;;;;;;;;18.70;99.90;;;;;;4985831;28;20056;-81
2022/04/14 13:22:21;;;;;;;;;;;18.40;99.90;;;;;;4985796;28;19933;-79
2022/04/14 13:24:47;;;;;;;;;;;18.20;99.90;;;;;;5000989;28;19921;-79
2022/04/14 13:27:12;;;;;;;;;;;18.10;99.90;;;;;;4983332;28;20367;-79
2022/04/14 13:29:38;;;;;;;;;;;18.10;99.90;;;;;;4983131;28;19944;-79
2022/04/14 13:32:04;;;;;;;;;;;18.10;99.90;;;;;;4982293;28;19926;-79
2022/04/14 13:34:30;;;;;;;;;;;18.20;99.90;;;;;;4985912;28;19922;-79
2022/04/14 13:36:58;;;;;;;;;;;18.30;99.90;;;;;;4982170;28;19928;-79
2022/04/14 13:39:24;;;;;;;;;;;18.30;99.90;;;;;;4984143;28;19976;-79
2022/04/14 13:41:49;;;;;;;;;;;18.20;99.90;;;;;;4988117;28;19922;-79
2022/04/14 13:44:15;;;;;;;;;;;18.10;99.90;;;;;;4989522;28;19922;-81
2022/04/14 13:46:40;;;;;;;;;;;18.10;99.90;;;;;;4980851;28;19926;-78
2022/04/14 13:49:06;;;;;;;;;;;18.10;99.90;;;;;;4980121;28;19922;-78
2022/04/14 13:51:31;;;;;;;;;;;18.10;99.90;;;;;;4979793;28;19922;-78
2022/04/14 13:53:58;;;;;;;;;;;17.90;98.60;;;;;;4978046;28;19926;-78
2022/04/14 13:56:24;;;;;;;;;;;17.90;99.90;;;;;;4977878;28;20017;-78
2022/04/14 13:58:49;;;;;;;;;;;17.80;99.90;;;;;;4977379;28;20311;-78
2022/04/14 14:01:15;;;;;;;;;;;17.70;99.90;;;;;;4980390;28;19974;-78
2022/04/14 14:03:40;;;;;;;;;;;17.70;99.90;;;;;;4979545;28;19980;-78
2022/04/14 14:06:06;;;;;;;;;;;17.70;99.90;;;;;;4978559;28;19925;-78
2022/04/14 14:08:31;;;;;;;;;;;17.70;99.90;;;;;;4961501;28;20414;-78
2022/04/14 14:10:57;;;;;;;;;;;17.70;99.90;;;;;;4983486;28;20357;-79
2022/04/14 14:13:22;;;;;;;;;;;17.70;99.90;;;;;;4983629;28;20451;-79
2022/04/14 14:15:48;;;;;;;;;;;17.70;99.90;;;;;;4985098;28;19925;-79
2022/04/14 14:18:14;;;;;;;;;;;17.70;99.90;;;;;;4987882;28;19926;-79
2022/04/14 14:20:40;;;;;;;;;;;17.80;99.90;;;;;;4980937;28;19933;-79